Time;durP1;ratioP1;P1;durP2;ratioP2;P2;SDS_P1;SDS_P2;PMS_P1;PMS_P2;Temp;Humidity;BMP_temperature;BMP_pressure;BME280_temperature;BME280_humidity;BME280_pressure;Samples;Min_cycle;Max_cycle;Signal;HPM_P1;HPM_P2
2021/12/01 00:01:13;;;;;;;1.27;1.20;;;;;;;1.61;45.69;94527.22;5055635;28;20189;-70
2021/12/01 00:03:41;;;;;;;1.35;1.30;;;;;;;1.76;45.13;94523.31;5055994;28;20212;-70
2021/12/01 00:06:09;;;;;;;1.50;1.40;;;;;;;1.87;45.50;94504.84;5056127;28;20193;-70
2021/12/01 00:08:37;;;;;;;1.17;1.17;;;;;;;1.95;44.82;94516.88;5056228;28;20255;-70
2021/12/01 00:11:04;;;;;;;2.30;1.95;;;;;;;1.85;48.06;94520.63;5055386;28;20193;-70
2021/12/01 00:13:32;;;;;;;1.40;1.30;;;;;;;1.81;44.70;94508.78;5055994;28;20296;-70
2021/12/01 00:16:00;;;;;;;1.17;1.17;;;;;;;1.90;44.65;94501.50;5055867;28;20256;-70
2021/12/01 00:18:27;;;;;;;2.40;2.20;;;;;;;1.96;48.73;94496.69;5055259;28;20200;-70
2021/12/01 00:20:53;;;;;;;2.70;2.50;;;;;;;1.85;50.07;94515.19;5055491;28;20217;-70
2021/12/01 00:23:20;;;;;;;1.50;1.40;;;;;;;1.83;45.18;94550.09;5055442;28;20220;-70
2021/12/01 00:25:49;;;;;;;1.35;1.25;;;;;;;1.99;43.89;94487.94;5056007;28;20192;-70
2021/12/01 00:28:16;;;;;;;1.50;1.40;;;;;;;2.08;45.16;94492.31;5054703;28;20201;-70
2021/12/01 00:30:43;;;;;;;1.42;1.33;;;;;;;2.06;43.59;94507.31;5056089;28;20209;-70
2021/12/01 00:33:11;;;;;;;1.50;1.40;;;;;;;2.13;43.23;94510.41;5056161;28;20287;-70
2021/12/01 00:35:38;;;;;;;1.50;1.40;;;;;;;2.23;44.19;94517.50;5055470;28;20201;-70
2021/12/01 00:38:05;;;;;;;4.13;3.83;;;;;;;2.14;48.50;94506.56;5055319;28;20267;-70
2021/12/01 00:40:32;;;;;;;5.95;5.35;;;;;;;1.64;52.30;94483.13;5055152;28;20193;-70
2021/12/01 00:43:01;;;;;;;5.50;5.05;;;;;;;1.44;53.53;94517.03;5055025;28;20206;-70
2021/12/01 00:45:29;;;;;;;6.03;5.43;;;;;;;1.22;55.04;94517.00;5055664;28;20277;-70
2021/12/01 00:47:56;;;;;;;4.78;4.38;;;;;;;1.17;53.88;94485.34;5054911;28;20197;-70
2021/12/01 00:50:25;;;;;;;3.67;3.33;;;;;;;1.09;50.94;94515.13;5055997;28;20245;-70
2021/12/01 00:52:53;;;;;;;1.50;1.40;;;;;;;1.30;46.38;94472.00;5055447;28;20186;-70
2021/12/01 00:55:20;;;;;;;2.28;2.10;;;;;;;1.53;48.44;94478.25;5055490;28;20174;-70
2021/12/01 00:57:47;;;;;;;3.35;3.05;;;;;;;1.62;48.93;94473.66;5055964;28;20185;-70
2021/12/01 01:00:15;;;;;;;5.60;5.05;;;;;;;1.55;52.59;94497.75;5054906;28;20206;-70
2021/12/01 01:02:42;;;;;;;3.58;3.28;;;;;;;1.38;51.56;94473.97;5054658;28;20212;-69
2021/12/01 01:05:10;;;;;;;3.88;3.58;;;;;;;1.53;50.77;94475.53;5055251;28;20181;-69
2021/12/01 01:07:37;;;;;;;5.20;4.70;;;;;;;1.40;52.94;94502.44;5054778;28;20543;-70
2021/12/01 01:10:16;;;;;;;6.93;6.20;;;;;;;1.06;54.81;94481.25;5055601;28;20248;-70
2021/12/01 01:18:15;;;;;;;9.07;7.57;;;;;;;-0.18;59.99;94513.09;5054393;28;20197;-70
2021/12/01 01:20:42;;;;;;;8.15;7.35;;;;;;;-0.04;60.43;94482.22;5054454;28;20201;-70
2021/12/01 01:23:09;;;;;;;8.18;7.05;;;;;;;-0.01;60.41;94508.72;5054362;28;20202;-70
2021/12/01 01:25:36;;;;;;;6.97;6.28;;;;;;;-0.04;59.60;94522.91;5055055;28;20182;-70
2021/12/01 01:28:03;;;;;;;7.45;6.43;;;;;;;-0.13;59.95;94538.22;5054362;28;20209;-70
2021/12/01 01:30:31;;;;;;;6.40;5.82;;;;;;;-0.07;60.28;94526.19;5054517;28;20241;-70
2021/12/01 01:32:58;;;;;;;7.63;6.85;;;;;;;-0.13;60.03;94542.84;5054932;28;20242;-69
2021/12/01 01:35:25;;;;;;;6.43;5.40;;;;;;;-0.09;58.66;94524.88;5055220;28;20236;-69
2021/12/01 01:37:52;;;;;;;6.25;5.65;;;;;;;0.10;59.30;94528.31;5054583;28;20237;-69
2021/12/01 01:40:20;;;;;;;6.88;6.28;;;;;;;0.22;58.66;94525.94;5054147;28;20229;-69
2021/12/01 01:42:48;;;;;;;7.38;6.68;;;;;;;0.18;59.23;94535.78;5054158;28;20580;-69
2021/12/01 01:45:15;;;;;;;8.30;7.50;;;;;;;0.15;59.70;94519.28;5053741;28;20618;-69
2021/12/01 01:47:59;;;;;;;8.48;7.70;;;;;;;0.05;59.91;94514.84;5054070;28;20208;-69
2021/12/01 01:50:35;;;;;;;8.00;7.30;;;;;;;-0.01;60.63;94499.78;5053683;28;20233;-69
2021/12/01 01:53:03;;;;;;;7.45;6.75;;;;;;;0.01;60.82;94521.19;5054084;28;20208;-69
2021/12/01 01:55:30;;;;;;;7.82;7.03;;;;;;;-0.06;60.85;94497.97;5054729;28;20182;-69
2021/12/01 01:57:57;;;;;;;7.60;6.90;;;;;;;-0.06;60.78;94487.13;5054231;28;20236;-69
2021/12/01 02:00:25;;;;;;;6.78;6.18;;;;;;;-0.02;61.70;94509.81;5054187;28;20220;-69
2021/12/01 02:02:55;;;;;;;6.43;5.82;;;;;;;-0.01;60.70;94508.72;5053685;28;20197;-69
2021/12/01 02:05:22;;;;;;;7.05;6.35;;;;;;;0.00;61.34;94509.53;5054620;28;20524;-69
2021/12/01 02:07:51;;;;;;;7.18;6.47;;;;;;;-0.04;61.29;94493.06;5054245;28;20194;-69
2021/12/01 02:10:18;;;;;;;7.47;6.88;;;;;;;-0.03;61.66;94504.72;5053844;28;20221;-69
2021/12/01 02:12:45;;;;;;;2.60;2.40;;;;;;;0.26;55.63;94484.63;5053855;28;20573;-69
2021/12/01 02:15:12;;;;;;;5.82;5.32;;;;;;;0.40;57.52;94502.50;5054974;28;20189;-69
2021/12/01 02:17:39;;;;;;;6.65;6.05;;;;;;;0.37;59.12;94491.47;5054809;28;20243;-69
2021/12/01 02:20:12;;;;;;;6.97;6.30;;;;;;;0.27;60.42;94480.81;5054452;28;20267;-70
2021/12/01 02:22:41;;;;;;;6.60;6.00;;;;;;;0.13;61.81;94472.69;5053794;28;20255;-69
2021/12/01 02:25:08;;;;;;;6.90;6.20;;;;;;;0.03;61.75;94486.44;5053578;28;20302;-70
2021/12/01 02:27:35;;;;;;;6.85;6.25;;;;;;;-0.04;61.54;94497.66;5055081;28;20194;-70
2021/12/01 02:30:02;;;;;;;6.70;6.07;;;;;;;-0.08;61.99;94502.88;5053666;28;20251;-70
2021/12/01 02:32:29;;;;;;;6.82;6.22;;;;;;;-0.09;62.37;94498.56;5053575;28;20200;-70
2021/12/01 02:34:56;;;;;;;3.80;3.50;;;;;;;-0.03;59.49;94488.44;5053661;28;20218;-70
2021/12/01 02:37:23;;;;;;;2.00;1.90;;;;;;;0.50;54.49;94493.34;5054517;28;20228;-70
2021/12/01 02:39:52;;;;;;;1.60;1.50;;;;;;;1.03;51.44;94478.34;5053844;28;20190;-70
2021/12/01 02:42:19;;;;;;;1.50;1.40;;;;;;;1.35;50.27;94450.97;5053341;28;20197;-70
2021/12/01 02:44:47;;;;;;;1.23;1.23;;;;;;;1.61;49.82;94444.88;5053633;28;20538;-70
2021/12/01 02:47:14;;;;;;;1.52;1.42;;;;;;;1.79;49.70;94465.59;5054227;28;20222;-70
2021/12/01 02:49:41;;;;;;;1.70;1.60;;;;;;;1.87;49.09;94464.84;5054245;28;20277;-70
2021/12/01 02:52:08;;;;;;;1.65;1.55;;;;;;;1.92;48.84;94459.28;5056062;28;20307;-70
2021/12/01 02:54:35;;;;;;;1.65;1.58;;;;;;;2.04;47.75;94485.09;5057674;28;20189;-70
2021/12/01 02:57:04;;;;;;;1.70;1.60;;;;;;;2.17;46.56;94497.78;5058027;28;20205;-70
2021/12/01 02:59:31;;;;;;;1.65;1.55;;;;;;;2.30;46.73;94482.47;5057732;28;20224;-70
2021/12/01 03:01:58;;;;;;;1.60;1.50;;;;;;;2.36;46.81;94471.13;5056849;28;20240;-71
2021/12/01 03:04:25;;;;;;;1.60;1.50;;;;;;;2.38;46.09;94479.75;5057515;28;20186;-70
2021/12/01 03:06:52;;;;;;;1.60;1.50;;;;;;;2.41;47.37;94456.56;5056737;28;20194;-70
2021/12/01 03:09:19;;;;;;;1.50;1.40;;;;;;;2.41;44.93;94473.69;5056996;28;20519;-70
2021/12/01 03:11:49;;;;;;;1.40;1.33;;;;;;;2.46;46.43;94466.50;5057502;28;20220;-70
2021/12/01 03:14:19;;;;;;;1.63;1.50;;;;;;;2.48;46.42;94470.50;5057494;28;20599;-70
2021/12/01 03:16:47;;;;;;;1.35;1.25;;;;;;;2.48;46.83;94470.50;5056662;28;20225;-70
2021/12/01 03:19:15;;;;;;;1.80;1.70;;;;;;;2.54;46.70;94471.16;5057339;28;20262;-70
2021/12/01 03:21:42;;;;;;;1.80;1.70;;;;;;;2.51;46.78;94469.09;5056397;28;20257;-70
2021/12/01 03:24:10;;;;;;;1.50;1.40;;;;;;;2.56;47.02;94488.78;5057691;28;20281;-70
2021/12/01 03:26:38;;;;;;;1.50;1.40;;;;;;;2.57;47.17;94495.03;5057156;28;20613;-70
2021/12/01 03:29:06;;;;;;;2.08;1.60;;;;;;;2.54;46.91;94514.72;5056171;28;20201;-70
2021/12/01 03:31:35;;;;;;;1.30;1.30;;;;;;;2.57;46.32;94475.97;5057494;28;20202;-70
2021/12/01 03:34:03;;;;;;;1.27;1.27;;;;;;;2.59;47.07;94485.44;5057038;28;20181;-70
2021/12/01 03:36:30;;;;;;;1.20;1.20;;;;;;;2.60;47.09;94510.72;5056134;28;20221;-70
2021/12/01 03:38:57;;;;;;;1.42;1.33;;;;;;;2.60;47.70;94506.09;5055999;28;20236;-70
2021/12/01 03:41:24;;;;;;;1.40;1.30;;;;;;;2.62;46.85;94505.78;5057293;28;20200;-70
2021/12/01 03:43:51;;;;;;;1.50;1.40;;;;;;;2.68;47.54;94504.50;5056676;28;20240;-70
2021/12/01 03:46:19;;;;;;;1.75;1.45;;;;;;;2.74;47.12;94510.63;5057218;28;20182;-70
2021/12/01 03:48:47;;;;;;;1.52;1.42;;;;;;;2.72;47.59;94499.22;5056762;28;20209;-71
2021/12/01 03:51:14;;;;;;;1.98;1.75;;;;;;;2.79;47.09;94497.63;5056094;28;20229;-71
2021/12/01 03:53:41;;;;;;;2.35;1.60;;;;;;;2.85;47.15;94503.75;5056074;28;20190;-71
2021/12/01 03:56:08;;;;;;;1.60;1.50;;;;;;;2.84;46.81;94505.69;5056427;28;20247;-71
2021/12/01 03:58:35;;;;;;;1.38;1.38;;;;;;;2.87;47.10;94496.88;5056594;28;20174;-71
2021/12/01 04:01:02;;;;;;;1.73;1.63;;;;;;;2.92;46.99;94492.38;5055722;28;20201;-71
2021/12/01 04:03:29;;;;;;;1.45;1.35;;;;;;;2.95;47.00;94489.84;5055212;28;20240;-70
2021/12/01 04:05:57;;;;;;;1.70;1.60;;;;;;;2.95;46.58;94486.31;5055853;28;20216;-70
2021/12/01 04:08:24;;;;;;;1.80;1.70;;;;;;;2.88;47.31;94484.06;5056375;28;20567;-70
2021/12/01 04:10:51;;;;;;;1.60;1.50;;;;;;;2.89;47.40;94486.44;5055537;28;20226;-70
2021/12/01 04:13:18;;;;;;;1.80;1.60;;;;;;;2.85;47.59;94492.84;5055986;28;20197;-70
2021/12/01 04:15:45;;;;;;;1.60;1.50;;;;;;;2.85;47.59;94493.66;5056494;28;20252;-70
2021/12/01 04:18:12;;;;;;;1.52;1.42;;;;;;;2.85;48.48;94471.06;5055733;28;20209;-70
2021/12/01 04:20:39;;;;;;;1.63;1.52;;;;;;;2.87;48.47;94494.16;5055565;28;20198;-70
2021/12/01 04:23:07;;;;;;;1.70;1.60;;;;;;;2.89;47.81;94464.66;5054716;28;20902;-70
2021/12/01 04:25:35;;;;;;;1.70;1.60;;;;;;;2.93;48.36;94473.00;5055531;28;20233;-70
2021/12/01 04:28:02;;;;;;;1.48;1.42;;;;;;;2.94;47.63;94465.63;5055384;28;20205;-70
2021/12/01 04:30:29;;;;;;;1.73;1.63;;;;;;;2.98;48.34;94472.03;5055842;28;20642;-70
2021/12/01 04:32:57;;;;;;;1.60;1.50;;;;;;;2.99;48.16;94481.81;5054450;28;20426;-70
2021/12/01 04:35:26;;;;;;;2.08;1.98;;;;;;;3.02;48.70;94467.56;5055865;28;20509;-69
2021/12/01 04:37:53;;;;;;;1.70;1.60;;;;;;;3.01;48.55;94496.72;5055124;28;20320;-70
2021/12/01 04:40:22;;;;;;;1.95;1.85;;;;;;;3.05;48.53;94491.41;5056158;28;20203;-70
2021/12/01 04:42:49;;;;;;;1.60;1.50;;;;;;;3.08;48.56;94498.97;5055058;28;20229;-70
2021/12/01 04:45:18;;;;;;;1.42;1.33;;;;;;;3.08;48.83;94502.50;5055442;28;20236;-71
2021/12/01 04:47:47;;;;;;;1.85;1.75;;;;;;;3.12;48.79;94508.94;5054896;28;20230;-71
2021/12/01 04:50:15;;;;;;;1.63;1.52;;;;;;;3.08;49.02;94502.50;5055410;28;20273;-68
2021/12/01 04:52:42;;;;;;;1.45;1.35;;;;;;;3.13;49.08;94518.69;5054861;28;20206;-71
2021/12/01 04:55:10;;;;;;;1.63;1.52;;;;;;;3.19;49.71;94515.81;5055467;28;20232;-71
2021/12/01 04:57:41;;;;;;;1.60;1.50;;;;;;;3.21;49.63;94505.41;5055734;28;20259;-71
2021/12/01 05:00:09;;;;;;;2.00;1.90;;;;;;;3.24;49.46;94511.00;5055363;28;20186;-71
2021/12/01 05:02:36;;;;;;;1.83;1.70;;;;;;;3.28;49.27;94522.09;5054797;28;20229;-71
2021/12/01 05:05:03;;;;;;;2.40;2.20;;;;;;;3.29;49.37;94519.03;5055244;28;20208;-70
2021/12/01 05:07:30;;;;;;;1.80;1.70;;;;;;;3.29;49.83;94520.94;5054674;28;20429;-70
2021/12/01 05:09:57;;;;;;;1.58;1.48;;;;;;;3.34;49.35;94507.97;5054762;28;20198;-71
2021/12/01 05:12:24;;;;;;;2.33;1.70;;;;;;;3.41;48.71;94531.22;5055365;28;20212;-70
2021/12/01 05:14:53;;;;;;;3.03;1.90;;;;;;;3.40;49.54;94529.63;5054296;28;20233;-70
2021/12/01 05:17:20;;;;;;;1.67;1.42;;;;;;;3.38;48.74;94529.94;5054110;28;20448;-70
2021/12/01 05:19:47;;;;;;;1.83;1.73;;;;;;;3.41;49.06;94528.47;5055458;28;20197;-70
2021/12/01 05:22:14;;;;;;;2.28;1.73;;;;;;;3.40;49.09;94544.03;5055318;28;20211;-69
2021/12/01 05:24:41;;;;;;;2.30;2.20;;;;;;;3.33;49.77;94555.41;5054482;28;20204;-69
2021/12/01 05:27:08;;;;;;;2.15;1.75;;;;;;;3.27;50.09;94559.44;5055226;28;20233;-69
2021/12/01 05:29:36;;;;;;;2.45;2.03;;;;;;;3.30;49.85;94550.59;5054324;28;20240;-70
2021/12/01 05:32:05;;;;;;;2.10;1.90;;;;;;;3.36;49.95;94551.25;5055111;28;20237;-73
2021/12/01 05:34:32;;;;;;;1.80;1.70;;;;;;;3.35;50.11;94546.94;5053985;28;20198;-70
2021/12/01 05:37:00;;;;;;;2.28;2.08;;;;;;;3.36;50.55;94545.81;5054980;28;20196;-70
2021/12/01 05:39:28;;;;;;;2.10;2.00;;;;;;;3.41;50.86;94547.56;5053734;28;20508;-70
2021/12/01 05:41:55;;;;;;;2.00;1.90;;;;;;;3.42;51.14;94550.00;5055242;28;20186;-71
2021/12/01 05:44:22;;;;;;;2.10;1.90;;;;;;;3.44;51.30;94550.44;5054437;28;20209;-72
2021/12/01 05:46:49;;;;;;;2.03;1.92;;;;;;;3.48;51.29;94551.41;5055034;28;20216;-72
2021/12/01 05:49:18;;;;;;;1.80;1.70;;;;;;;3.52;51.66;94546.13;5055571;28;20275;-71
2021/12/01 05:51:45;;;;;;;2.30;2.10;;;;;;;3.58;51.65;94545.66;5055316;28;20210;-71
2021/12/01 05:54:12;;;;;;;1.90;1.73;;;;;;;3.67;51.17;94539.38;5054744;28;20634;-72
2021/12/01 05:56:39;;;;;;;1.55;1.45;;;;;;;3.69;51.16;94546.13;5054900;28;20201;-71
2021/12/01 05:59:06;;;;;;;1.67;1.58;;;;;;;3.67;51.12;94551.13;5054170;28;20229;-71
2021/12/01 06:01:34;;;;;;;1.77;1.67;;;;;;;3.67;51.17;94545.66;5054423;28;20236;-72
2021/12/01 06:04:01;;;;;;;1.80;1.70;;;;;;;3.67;51.31;94536.66;5055042;28;20194;-72
2021/12/01 06:06:30;;;;;;;1.88;1.77;;;;;;;3.69;51.36;94553.50;5053984;28;20225;-72
2021/12/01 06:08:57;;;;;;;1.50;1.35;;;;;;;3.72;51.90;94556.41;5054468;28;20182;-72
2021/12/01 06:11:24;;;;;;;1.60;1.50;;;;;;;3.79;51.41;94548.53;5054777;28;20220;-72
2021/12/01 06:13:52;;;;;;;1.67;1.58;;;;;;;3.85;51.27;94549.19;5054639;28;20626;-72
2021/12/01 06:16:21;;;;;;;1.65;1.55;;;;;;;3.85;51.26;94543.72;5054095;28;20217;-72
2021/12/01 06:18:48;;;;;;;1.80;1.70;;;;;;;3.81;52.02;94535.38;5053826;28;20517;-72
2021/12/01 06:21:15;;;;;;;1.70;1.60;;;;;;;3.89;52.76;94535.69;5054411;28;20607;-72
2021/12/01 06:23:43;;;;;;;1.27;1.20;;;;;;;3.94;52.42;94560.06;5054995;28;20191;-72
2021/12/01 06:26:10;;;;;;;1.38;1.30;;;;;;;3.91;52.75;94553.31;5054754;28;20248;-72
2021/12/01 06:28:37;;;;;;;1.40;1.38;;;;;;;3.88;52.21;94555.88;5057617;28;20189;-72
2021/12/01 06:31:05;;;;;;;1.85;1.75;;;;;;;3.90;52.46;94559.91;5058451;28;20296;-72
2021/12/01 06:33:32;;;;;;;2.83;1.73;;;;;;;3.90;52.81;94561.84;5057222;28;20259;-72
2021/12/01 06:35:59;;;;;;;2.05;1.95;;;;;;;3.93;52.62;94591.22;5058199;28;20190;-72
2021/12/01 06:38:26;;;;;;;1.50;1.40;;;;;;;3.89;52.09;94574.69;5057668;28;20208;-72
2021/12/01 06:40:54;;;;;;;2.00;1.48;;;;;;;3.89;52.77;94582.06;5057408;28;20204;-72
2021/12/01 06:43:21;;;;;;;1.58;1.48;;;;;;;3.84;53.15;94577.56;5058456;28;20217;-72
2021/12/01 06:45:48;;;;;;;2.00;1.77;;;;;;;3.96;53.16;94574.16;5057551;28;20235;-72
2021/12/01 06:48:15;;;;;;;1.80;1.70;;;;;;;4.03;53.24;94577.22;5058084;28;20248;-72
2021/12/01 06:50:42;;;;;;;2.20;2.00;;;;;;;3.99;53.43;94577.06;5058301;28;20237;-72
2021/12/01 06:53:09;;;;;;;2.15;1.73;;;;;;;4.02;53.05;94583.81;5058148;28;20236;-72
2021/12/01 06:55:36;;;;;;;1.65;1.45;;;;;;;3.99;53.78;94573.53;5056933;28;20197;-72
2021/12/01 06:58:04;;;;;;;1.80;1.70;;;;;;;4.09;53.34;94601.28;5058178;28;20182;-72
2021/12/01 07:00:31;;;;;;;1.85;1.70;;;;;;;4.16;53.51;94609.00;5057723;28;20236;-72
2021/12/01 07:02:58;;;;;;;1.60;1.48;;;;;;;4.22;53.30;94596.00;5056977;28;20186;-72
2021/12/01 07:05:25;;;;;;;2.30;1.60;;;;;;;4.38;53.04;94612.66;5057207;28;20208;-72
2021/12/01 07:07:52;;;;;;;1.60;1.50;;;;;;;4.44;52.88;94638.66;5058119;28;20210;-73
2021/12/01 07:10:20;;;;;;;2.10;1.90;;;;;;;4.41;52.71;94614.75;5056793;28;20594;-70
2021/12/01 07:12:47;;;;;;;1.73;1.63;;;;;;;4.46;52.55;94609.09;5058338;28;20244;-70
2021/12/01 07:15:15;;;;;;;1.67;1.58;;;;;;;4.52;52.25;94608.59;5057531;28;20292;-70
2021/12/01 07:17:42;;;;;;;1.90;1.80;;;;;;;4.61;52.23;94614.03;5057201;28;20237;-70
2021/12/01 07:20:11;;;;;;;1.95;1.83;;;;;;;4.64;52.16;94613.38;5056344;28;20232;-70
2021/12/01 07:22:38;;;;;;;1.90;1.80;;;;;;;4.58;52.51;94617.44;5056702;28;20213;-74
2021/12/01 07:25:06;;;;;;;1.55;1.48;;;;;;;4.61;52.34;94611.28;5056820;28;20288;-73
2021/12/01 07:27:33;;;;;;;2.60;2.40;;;;;;;4.64;52.75;94610.63;5057018;28;20197;-73
2021/12/01 07:30:00;;;;;;;2.60;2.40;;;;;;;4.69;52.22;94632.34;5057798;28;20251;-74
2021/12/01 07:32:28;;;;;;;1.80;1.70;;;;;;;4.66;53.21;94613.06;5057556;28;20214;-73
2021/12/01 07:34:56;;;;;;;2.85;2.60;;;;;;;4.71;52.86;94618.34;5056754;28;20198;-73
2021/12/01 07:37:23;;;;;;;2.10;2.00;;;;;;;4.75;52.75;94611.09;5057216;28;20552;-73
2021/12/01 07:39:50;;;;;;;2.20;2.00;;;;;;;4.84;53.00;94598.22;5056598;28;20244;-73
2021/12/01 07:42:17;;;;;;;2.30;2.10;;;;;;;5.00;52.37;94593.00;5057186;28;20182;-73
2021/12/01 07:44:44;;;;;;;2.20;2.00;;;;;;;5.10;51.67;94587.16;5056564;28;20202;-72
2021/12/01 07:47:11;;;;;;;2.30;2.10;;;;;;;5.17;51.58;94612.03;5057663;28;20190;-72
2021/12/01 07:49:39;;;;;;;1.52;1.42;;;;;;;5.06;51.80;94616.28;5056592;28;20324;-73
2021/12/01 07:52:07;;;;;;;1.98;1.70;;;;;;;5.04;51.77;94608.38;5057788;28;20216;-73
2021/12/01 07:54:34;;;;;;;1.98;1.45;;;;;;;5.09;51.67;94625.75;5057655;28;20193;-73
2021/12/01 07:57:02;;;;;;;1.42;1.35;;;;;;;5.09;51.77;94620.28;5056436;28;20200;-72
2021/12/01 07:59:29;;;;;;;1.48;1.38;;;;;;;5.04;51.82;94618.53;5057456;28;20197;-72
2021/12/01 08:01:55;;;;;;;1.90;1.77;;;;;;;5.07;52.50;94624.13;5057040;28;20204;-70
2021/12/01 08:04:22;;;;;;;3.08;2.30;;;;;;;5.14;51.80;94628.31;5056509;28;20233;-72
2021/12/01 08:06:51;;;;;;;1.85;1.60;;;;;;;5.20;52.46;94630.53;5056847;28;20185;-73
2021/12/01 08:09:18;;;;;;;2.50;2.30;;;;;;;5.23;51.47;94642.75;5056786;28;20267;-73
2021/12/01 08:11:45;;;;;;;1.73;1.63;;;;;;;5.28;50.97;94640.59;5056835;28;20646;-72
2021/12/01 08:14:12;;;;;;;1.60;1.50;;;;;;;5.37;51.18;94642.50;5057003;28;20228;-73
2021/12/01 08:16:39;;;;;;;1.50;1.40;;;;;;;5.36;51.62;94638.97;5056646;28;20224;-72
2021/12/01 08:19:06;;;;;;;2.35;1.98;;;;;;;5.36;50.88;94640.91;5055912;28;20229;-73
2021/12/01 08:21:34;;;;;;;2.10;1.90;;;;;;;5.44;50.88;94642.78;5056479;28;20198;-73
2021/12/01 08:24:02;;;;;;;2.28;2.08;;;;;;;5.58;50.88;94653.47;5056184;28;20229;-70
2021/12/01 08:26:29;;;;;;;2.30;2.10;;;;;;;5.60;50.96;94641.09;5056957;28;20213;-72
2021/12/01 08:28:56;;;;;;;1.95;1.58;;;;;;;5.62;50.23;94646.22;5056395;28;20204;-73
2021/12/01 08:31:23;;;;;;;3.38;2.00;;;;;;;5.69;50.82;94639.06;5057319;28;20209;-73
2021/12/01 08:33:50;;;;;;;2.90;2.70;;;;;;;5.77;50.87;94640.16;5057527;28;20188;-73
2021/12/01 08:36:17;;;;;;;1.75;1.65;;;;;;;5.77;50.42;94632.75;5057502;28;20665;-73
2021/12/01 08:38:45;;;;;;;2.13;1.92;;;;;;;5.96;50.73;94626.06;5056883;28;20257;-73
2021/12/01 08:41:13;;;;;;;2.10;1.88;;;;;;;6.07;50.23;94627.25;5056317;28;20206;-73
2021/12/01 08:43:40;;;;;;;1.98;1.88;;;;;;;6.25;50.34;94631.44;5056101;28;20213;-72
2021/12/01 08:46:08;;;;;;;1.80;1.70;;;;;;;6.48;49.61;94634.59;5055307;28;20206;-72
2021/12/01 08:48:36;;;;;;;2.00;1.90;;;;;;;6.59;49.84;94626.75;5055134;28;20555;-72
2021/12/01 08:51:03;;;;;;;2.25;2.05;;;;;;;6.60;49.18;94622.88;5055505;28;20248;-72
2021/12/01 08:53:31;;;;;;;2.42;1.90;;;;;;;6.48;49.13;94628.31;5056093;28;20202;-72
2021/12/01 08:55:59;;;;;;;1.60;1.50;;;;;;;6.47;48.77;94643.16;5056327;28;20196;-72
2021/12/01 08:58:27;;;;;;;2.10;1.92;;;;;;;6.41;49.46;94628.84;5056321;28;20224;-72
2021/12/01 09:00:55;;;;;;;2.00;1.90;;;;;;;6.43;49.43;94643.03;5056327;28;20233;-73
2021/12/01 09:03:22;;;;;;;2.22;1.90;;;;;;;6.35;49.28;94652.13;5056951;28;20251;-72
2021/12/01 09:05:50;;;;;;;1.90;1.80;;;;;;;6.27;49.23;94644.78;5056247;28;20574;-73
2021/12/01 09:08:20;;;;;;;2.35;2.15;;;;;;;6.15;49.57;94640.06;5056213;28;20316;-73
2021/12/01 09:10:48;;;;;;;3.33;2.22;;;;;;;6.13;49.64;94647.78;5055894;28;20197;-70
2021/12/01 09:13:16;;;;;;;2.38;2.17;;;;;;;6.01;49.76;94651.28;5055487;28;20206;-71
2021/12/01 09:15:44;;;;;;;2.03;1.90;;;;;;;5.98;50.01;94651.94;5055002;28;20319;-70
2021/12/01 09:18:11;;;;;;;2.15;2.05;;;;;;;6.32;49.99;94641.03;5054582;28;20194;-70
2021/12/01 09:20:38;;;;;;;2.50;2.30;;;;;;;6.79;50.59;94638.81;5055397;28;20192;-72
2021/12/01 09:23:05;;;;;;;2.83;2.20;;;;;;;7.26;49.51;94643.88;5055696;28;20224;-73
2021/12/01 09:25:33;;;;;;;2.20;2.00;;;;;;;7.63;48.78;94641.16;5055717;28;20192;-72
2021/12/01 09:28:00;;;;;;;2.60;2.30;;;;;;;8.02;46.96;94645.06;5054558;28;20194;-73
2021/12/01 09:30:28;;;;;;;1.95;1.85;;;;;;;8.25;46.17;94650.06;5055707;28;20212;-74
2021/12/01 09:32:56;;;;;;;1.80;1.70;;;;;;;8.35;45.81;94636.66;5054255;28;20335;-73
2021/12/01 09:35:23;;;;;;;2.20;2.00;;;;;;;8.67;45.41;94647.75;5055214;28;20259;-75
2021/12/01 09:37:50;;;;;;;3.15;2.40;;;;;;;8.67;45.56;94647.75;5055335;28;20193;-72
2021/12/01 09:40:18;;;;;;;2.83;2.38;;;;;;;8.73;45.80;94638.09;5054948;28;20240;-73
2021/12/01 09:42:48;;;;;;;2.55;2.35;;;;;;;9.08;45.19;94634.72;5055300;28;20220;-72
2021/12/01 09:45:16;;;;;;;1.70;1.60;;;;;;;9.41;45.01;94623.34;5055482;28;20224;-72
2021/12/01 09:47:43;;;;;;;1.83;1.73;;;;;;;9.73;43.60;94637.88;5055910;28;20189;-72
2021/12/01 09:50:12;;;;;;;1.55;1.45;;;;;;;9.67;42.52;94620.03;5054384;28;20236;-73
2021/12/01 09:52:39;;;;;;;1.33;1.20;;;;;;;9.80;42.55;94624.28;5055221;28;20252;-70
2021/12/01 09:55:08;;;;;;;2.60;1.80;;;;;;;9.92;41.67;94631.63;5055201;28;20298;-70
2021/12/01 09:57:35;;;;;;;1.50;1.40;;;;;;;9.71;42.58;94636.63;5055103;28;20222;-71
2021/12/01 10:00:02;;;;;;;1.98;1.40;;;;;;;9.54;42.54;94627.56;5055175;28;20221;-70
2021/12/01 10:02:29;;;;;;;1.70;1.60;;;;;;;9.59;42.67;94630.06;5056898;28;20201;-70
2021/12/01 10:04:56;;;;;;;1.80;1.60;;;;;;;9.70;42.09;94616.56;5058351;28;20201;-71
2021/12/01 10:07:32;;;;;;;1.83;1.70;;;;;;;10.13;41.66;94623.81;5059122;28;20611;-71
2021/12/01 10:10:07;;;;;;;1.90;1.77;;;;;;;10.46;42.18;94622.56;5058445;28;20193;-71
2021/12/01 10:12:51;;;;;;;2.63;2.10;;;;;;;10.34;40.82;94629.00;5058978;28;20204;-72
2021/12/01 10:15:29;;;;;;;1.67;1.58;;;;;;;10.10;41.09;94624.53;5056765;28;20201;-71
2021/12/01 10:18:09;;;;;;;1.95;1.80;;;;;;;10.24;42.72;94623.22;5058231;28;20216;-72
2021/12/01 10:20:37;;;;;;;1.90;1.80;;;;;;;10.19;41.99;94613.31;5058839;28;20194;-72
2021/12/01 10:23:09;;;;;;;4.55;4.07;;;;;;;9.87;41.79;94624.41;5058952;28;20265;-72
2021/12/01 10:25:37;;;;;;;5.43;4.93;;;;;;;9.63;42.98;94619.16;5059172;28;20190;-73
2021/12/01 10:28:04;;;;;;;2.80;2.60;;;;;;;9.56;42.33;94610.72;5058521;28;20194;-73
2021/12/01 10:30:42;;;;;;;2.95;2.10;;;;;;;9.53;43.35;94611.44;5058281;28;20769;-73
2021/12/01 10:33:10;;;;;;;1.70;1.60;;;;;;;9.63;42.84;94608.94;5058539;28;20300;-69
2021/12/01 10:35:37;;;;;;;1.60;1.50;;;;;;;9.52;42.59;94612.59;5058066;28;20274;-69
2021/12/01 10:38:06;;;;;;;1.70;1.60;;;;;;;9.40;42.89;94617.03;5057900;28;20228;-69
2021/12/01 10:40:36;;;;;;;1.75;1.65;;;;;;;9.27;44.28;94609.25;5057665;28;20229;-69
2021/12/01 10:43:04;;;;;;;1.70;1.60;;;;;;;9.18;43.87;94625.09;5058251;28;20217;-69
2021/12/01 10:45:33;;;;;;;1.83;1.67;;;;;;;9.18;43.89;94619.59;5057550;28;20243;-69
2021/12/01 10:48:01;;;;;;;1.80;1.50;;;;;;;8.98;43.41;94613.22;5058379;28;20186;-69
2021/12/01 10:50:31;;;;;;;1.50;1.40;;;;;;;8.87;43.27;94622.00;5058111;28;20324;-69
2021/12/01 10:53:03;;;;;;;1.98;1.77;;;;;;;8.89;44.44;94616.13;5057209;28;20220;-69
2021/12/01 10:55:30;;;;;;;2.25;1.70;;;;;;;9.11;43.94;94614.72;5057227;28;20204;-71
2021/12/01 10:58:01;;;;;;;2.53;2.10;;;;;;;9.35;43.58;94609.03;5057386;28;20193;-71
2021/12/01 11:00:29;;;;;;;2.63;1.80;;;;;;;9.52;42.77;94596.06;5057219;28;20226;-71
2021/12/01 11:03:06;;;;;;;2.50;1.80;;;;;;;9.77;43.51;94596.66;5057083;28;20251;-71
2021/12/01 11:05:36;;;;;;;1.30;1.20;;;;;;;10.06;41.80;94592.56;5058159;28;20196;-71
2021/12/01 11:08:12;;;;;;;1.70;1.50;;;;;;;10.47;40.57;94585.56;5057230;28;20197;-71
2021/12/01 11:10:39;;;;;;;1.63;1.52;;;;;;;10.72;40.76;94591.56;5057667;28;20531;-71
2021/12/01 11:13:08;;;;;;;2.15;1.77;;;;;;;11.28;39.89;94568.88;5055934;28;20209;-71
2021/12/01 11:15:37;;;;;;;1.80;1.70;;;;;;;11.65;38.93;94582.06;5056515;28;20579;-71
2021/12/01 11:18:05;;;;;;;1.70;1.60;;;;;;;11.94;38.12;94588.84;5057107;28;20208;-71
2021/12/01 11:20:38;;;;;;;1.90;1.80;;;;;;;12.29;37.96;94571.16;5057698;28;20268;-71
2021/12/01 11:23:09;;;;;;;2.65;2.20;;;;;;;12.27;37.28;94574.31;5057715;28;20233;-71
2021/12/01 11:25:37;;;;;;;1.77;1.63;;;;;;;12.12;36.17;94586.34;5057539;28;20198;-71
2021/12/01 11:28:05;;;;;;;2.75;2.50;;;;;;;11.86;38.46;94567.81;5057788;28;20572;-70
2021/12/01 11:30:33;;;;;;;2.53;1.60;;;;;;;12.29;37.04;94563.66;5057979;28;20292;-71
2021/12/01 11:33:00;;;;;;;2.70;2.50;;;;;;;12.68;36.93;94571.63;5057621;28;20256;-70
2021/12/01 11:35:27;;;;;;;2.20;1.90;;;;;;;12.72;35.83;94566.94;5057498;28;20194;-69
2021/12/01 11:37:57;;;;;;;1.60;1.48;;;;;;;13.04;35.66;94572.00;5056645;28;20519;-68
2021/12/01 11:40:24;;;;;;;1.75;1.65;;;;;;;13.61;35.06;94560.63;5056246;28;20626;-67
2021/12/01 11:42:51;;;;;;;1.75;1.65;;;;;;;14.29;33.90;94561.84;5056101;28;20202;-70
2021/12/01 11:45:18;;;;;;;1.45;1.30;;;;;;;15.15;32.03;94557.41;5057413;28;20189;-72
2021/12/01 11:47:47;;;;;;;1.55;1.45;;;;;;;15.52;31.68;94561.78;5056502;28;20637;-72
2021/12/01 11:50:17;;;;;;;1.52;1.42;;;;;;;15.71;31.29;94549.50;5057715;28;20247;-71